Time;durP1;ratioP1;P1;durP2;ratioP2;P2;SDS_P1;SDS_P2;PMS_P1;PMS_P2;Temp;Humidity;BMP_temperature;BMP_pressure;BME280_temperature;BME280_humidity;BME280_pressure;Samples;Min_cycle;Max_cycle;Signal;HPM_P1;HPM_P2
2022/05/13 00:02:07;;;;;;;12.88;11.35;;;435.60;2355.20;;;;;;5095536;28;20020;-80
2022/05/13 00:04:33;;;;;;;14.80;10.98;;;435.60;2355.20;;;;;;5076875;28;20032;-81
2022/05/13 00:06:59;;;;;;;12.73;9.85;;;435.60;2355.20;;;;;;5076647;28;20461;-82
2022/05/13 00:12:10;;;;;;;14.55;10.77;;;435.50;2355.20;;;;;;5095021;28;20427;-79
2022/05/13 00:14:36;;;;;;;18.33;12.05;;;435.40;2355.20;;;;;;5076386;28;20058;-81
2022/05/13 00:17:02;;;;;;;13.57;10.70;;;435.40;2355.20;;;;;;5076520;28;20032;-80
2022/05/13 00:19:28;;;;;;;21.55;11.43;;;435.30;2355.20;;;;;;5094383;28;20028;-78
2022/05/13 00:21:54;;;;;;;14.30;10.90;;;435.20;2355.20;;;;;;5076231;28;20028;-81
2022/05/13 00:24:19;;;;;;;14.52;11.13;;;410.50;2355.20;;;;;;5076520;28;20361;-82
2022/05/13 00:26:45;;;;;;;14.63;11.05;;;410.50;2355.20;;;;;;5094470;28;20020;-82
2022/05/13 00:29:11;;;;;;;15.77;11.25;;;435.20;2355.20;;;;;;5075983;28;20035;-81
2022/05/13 00:31:38;;;;;;;12.52;10.65;;;435.20;2355.20;;;;;;5076321;28;20465;-82
2022/05/13 00:34:04;;;;;;;12.77;10.55;;;435.30;2355.20;;;;;;5075654;28;20513;-81
2022/05/13 00:36:30;;;;;;;17.08;10.93;;;435.20;2355.20;;;;;;5075878;28;20036;-81
2022/05/13 00:38:56;;;;;;;12.57;10.18;;;410.50;2355.20;;;;;;5076518;28;20032;-82
2022/05/13 00:41:21;;;;;;;14.65;11.23;;;410.30;2355.20;;;;;;5094045;28;20054;-82
2022/05/13 00:43:51;;;;;;;13.85;11.15;;;410.30;2355.20;;;;;;5075729;28;20051;-82
2022/05/13 00:46:18;;;;;;;18.05;11.73;;;410.50;2355.20;;;;;;5076209;28;20020;-83
2022/05/13 00:48:46;;;;;;;16.60;11.68;;;410.50;2355.20;;;;;;5075701;28;20031;-83
2022/05/13 00:51:16;;;;;;;16.83;11.05;;;410.50;2355.20;;;;;;5094269;28;20034;-83
2022/05/13 00:53:43;;;;;;;13.68;10.20;;;410.50;2355.20;;;;;;5075739;28;20074;-83
2022/05/13 00:56:13;;;;;;;16.75;10.98;;;410.30;2355.20;;;;;;5075496;28;20016;-82
2022/05/13 00:58:42;;;;;;;14.82;10.38;;;410.00;2355.20;;;;;;5075672;28;20077;-81
2022/05/13 01:01:08;;;;;;;17.58;11.20;;;410.00;2355.20;;;;;;5075555;28;20032;-81
2022/05/13 01:03:37;;;;;;;12.90;10.43;;;410.20;2355.20;;;;;;5075508;28;20050;-82
2022/05/13 01:06:06;;;;;;;13.93;10.38;;;410.10;2355.20;;;;;;5075756;28;20077;-81
2022/05/13 01:08:35;;;;;;;14.00;10.63;;;410.10;2355.20;;;;;;5075495;28;20028;-81
2022/05/13 01:11:04;;;;;;;15.07;10.93;;;410.20;2355.20;;;;;;5075388;28;20385;-81
2022/05/13 01:13:32;;;;;;;16.77;11.60;;;410.20;2355.20;;;;;;5075566;28;20027;-82
2022/05/13 01:15:58;;;;;;;21.02;11.07;;;410.20;2355.20;;;;;;5075760;28;20024;-83
2022/05/13 01:18:36;;;;;;;14.95;11.05;;;410.20;2355.20;;;;;;5075412;28;20075;-79
2022/05/13 01:21:05;;;;;;;16.25;10.80;;;410.30;2355.20;;;;;;5075793;28;20071;-82
2022/05/13 01:23:37;;;;;;;12.70;10.52;;;410.30;2355.20;;;;;;5075264;28;20060;-79
2022/05/13 01:26:09;;;;;;;15.90;11.25;;;410.30;2355.20;;;;;;5075763;28;20058;-84
2022/05/13 01:28:40;;;;;;;;;;;410.00;2355.20;;;;;;5075982;28;20056;-82
2022/05/13 01:31:12;;;;;;;16.17;10.50;;;409.90;2355.20;;;;;;5075478;28;19951;-81
2022/05/13 01:33:40;;;;;;;13.60;10.65;;;409.90;2355.20;;;;;;5076827;28;20032;-82
2022/05/13 01:36:09;;;;;;;14.25;10.98;;;410.00;2355.20;;;;;;5075563;28;20076;-82
2022/05/13 01:38:39;;;;;;;14.13;11.18;;;410.00;2355.20;;;;;;5075605;28;20389;-82
2022/05/13 01:41:06;;;;;;;14.88;9.70;;;409.80;2355.20;;;;;;5093879;28;20024;-83
2022/05/13 01:43:33;;;;;;;11.98;10.38;;;409.90;2355.20;;;;;;5084505;28;20036;-82
2022/05/13 01:45:59;;;;;;;13.32;11.27;;;409.70;2355.20;;;;;;5107930;28;20028;-81
2022/05/13 01:48:27;;;;;;;16.60;11.48;;;409.70;2355.20;;;;;;5087412;28;20026;-82
2022/05/13 01:50:53;;;;;;;12.25;9.75;;;409.70;2355.20;;;;;;5079480;28;20024;-82
2022/05/13 01:53:19;;;;;;;16.15;10.23;;;409.70;2355.20;;;;;;5079690;28;20060;-81
2022/05/13 01:55:45;;;;;;;12.60;11.30;;;409.70;2355.20;;;;;;5080813;28;20036;-80
2022/05/13 01:58:17;;;;;;;11.70;10.27;;;409.90;2355.20;;;;;;5080279;28;20450;-81
2022/05/13 02:00:44;;;;;;;12.93;11.02;;;409.90;2355.20;;;;;;5079122;28;20461;-82
2022/05/13 02:05:55;;;;;;;14.90;10.82;;;409.70;2355.20;;;;;;5096915;28;20027;-82
2022/05/13 02:08:21;;;;;;;15.70;10.45;;;409.80;2355.20;;;;;;5078958;28;20138;-83
2022/05/13 02:10:47;;;;;;;15.07;9.90;;;410.00;2355.20;;;;;;5079141;28;20024;-82
2022/05/13 02:13:14;;;;;;;14.63;11.27;;;409.90;2355.20;;;;;;5078586;28;20032;-82
2022/05/13 02:15:40;;;;;;;20.60;12.05;;;410.00;2355.20;;;;;;5079062;28;20036;-80
2022/05/13 02:18:07;;;;;;;14.80;11.10;;;410.10;2355.20;;;;;;5096893;28;20094;-81
2022/05/13 02:20:33;;;;;;;14.45;10.70;;;410.20;2355.20;;;;;;5078622;28;20035;-83
2022/05/13 02:22:59;;;;;;;17.27;11.00;;;410.00;2355.20;;;;;;5075157;28;20055;-82
2022/05/13 02:25:25;;;;;;;10.40;9.32;;;410.00;2355.20;;;;;;5076560;28;20025;-82
2022/05/13 02:27:51;;;;;;;19.90;10.85;;;410.00;2355.20;;;;;;5075087;28;20028;-81
2022/05/13 02:30:18;;;;;;;18.20;12.18;;;410.00;2355.20;;;;;;5075632;28;20385;-82
2022/05/13 02:32:44;;;;;;;16.60;11.32;;;410.00;2355.20;;;;;;5076641;28;20351;-81
2022/05/13 02:35:11;;;;;;;17.60;13.10;;;409.70;2355.20;;;;;;5074967;28;20054;-81
2022/05/13 02:37:37;;;;;;;18.65;12.70;;;384.90;2329.60;;;;;;5075382;28;20458;-82
2022/05/13 02:40:04;;;;;;;16.55;12.63;;;384.90;2329.60;;;;;;5075237;28;20056;-82
2022/05/13 02:42:29;;;;;;;14.23;12.30;;;384.90;2329.60;;;;;;5075061;28;20039;-82
2022/05/13 02:44:55;;;;;;;15.25;11.98;;;384.90;2329.60;;;;;;5075046;28;20029;-80
2022/05/13 02:47:21;;;;;;;22.60;11.75;;;409.60;2355.20;;;;;;5075763;28;20066;-82
2022/05/13 02:49:47;;;;;;;16.30;11.95;;;384.90;2329.60;;;;;;5074727;28;20468;-82
2022/05/13 02:52:13;;;;;;;14.43;12.63;;;384.90;2329.60;;;;;;5076500;28;20021;-81
2022/05/13 02:54:39;;;;;;;14.70;11.48;;;384.90;2329.60;;;;;;5074567;28;20032;-81
2022/05/13 02:57:05;;;;;;;17.83;12.25;;;409.60;2355.20;;;;;;5074193;28;20036;-81
2022/05/13 02:59:31;;;;;;;13.98;11.30;;;384.90;2329.60;;;;;;5075626;28;20032;-81
2022/05/13 03:01:57;;;;;;;13.23;11.60;;;409.60;2355.20;;;;;;5074498;28;20032;-82
2022/05/13 03:04:23;;;;;;;13.23;11.10;;;409.60;2355.20;;;;;;5074663;28;20029;-81
2022/05/13 03:06:51;;;;;;;19.10;12.55;;;384.80;2329.60;;;;;;5074555;28;20461;-81
2022/05/13 03:09:18;;;;;;;20.33;13.70;;;384.70;2329.60;;;;;;5075782;28;20032;-81
2022/05/13 03:11:44;;;;;;;15.77;12.57;;;384.70;2329.60;;;;;;5074552;28;20458;-80
2022/05/13 03:14:13;;;;;;;17.75;11.93;;;384.80;2329.60;;;;;;5074272;28;20074;-80
2022/05/13 03:16:38;;;;;;;16.88;12.20;;;384.60;2329.60;;;;;;5073857;28;20119;-82
2022/05/13 03:19:04;;;;;;;17.80;11.60;;;384.70;2329.60;;;;;;5074549;28;20048;-81
2022/05/13 03:21:30;;;;;;;14.35;10.98;;;384.60;2329.60;;;;;;5074389;28;20031;-82
2022/05/13 03:23:58;;;;;;;19.42;11.73;;;384.70;2329.60;;;;;;5073946;28;20060;-82
2022/05/13 03:26:23;;;;;;;15.23;12.23;;;384.90;2329.60;;;;;;5074000;28;20025;-82
2022/05/13 03:28:49;;;;;;;13.75;11.57;;;384.90;2329.60;;;;;;5074205;28;20024;-81
2022/05/13 03:31:15;;;;;;;18.45;12.20;;;384.90;2329.60;;;;;;5075148;28;20028;-80
2022/05/13 03:33:42;;;;;;;17.05;11.63;;;384.60;2329.60;;;;;;5074004;28;20035;-83
2022/05/13 03:36:12;;;;;;;16.83;12.20;;;384.60;2329.60;;;;;;5074111;28;20028;-82
2022/05/13 03:38:41;;;;;;;16.02;12.23;;;384.40;2329.60;;;;;;5073579;28;20059;-83
2022/05/13 03:41:07;;;;;;;16.27;12.38;;;384.10;2329.60;;;;;;5073984;28;20421;-78
2022/05/13 03:43:36;;;;;;;21.13;13.02;;;384.50;2329.60;;;;;;5073634;28;20469;-81
2022/05/13 03:46:03;;;;;;;15.35;12.23;;;384.50;2329.60;;;;;;5073922;28;20377;-84
2022/05/13 03:48:31;;;;;;;16.40;12.32;;;384.40;2329.60;;;;;;5074777;28;20064;-80
2022/05/13 03:51:00;;;;;;;23.88;13.00;;;384.00;2329.60;;;;;;5073206;28;20043;-80
2022/05/13 03:53:26;;;;;;;15.15;11.90;;;384.20;2329.60;;;;;;5073489;28;20020;-80
2022/05/13 03:55:52;;;;;;;15.15;10.75;;;384.30;2329.60;;;;;;5073485;28;20450;-80
2022/05/13 03:58:18;;;;;;;20.85;12.52;;;384.40;2329.60;;;;;;5073375;28;20031;-82
2022/05/13 04:00:45;;;;;;;18.23;12.13;;;384.60;2329.60;;;;;;5075134;28;20025;-83
2022/05/13 04:03:14;;;;;;;19.02;12.48;;;384.70;2329.60;;;;;;5073589;28;20572;-79
2022/05/13 04:11:09;;;;;;;16.33;11.13;;;384.30;2329.60;;;;;;5074774;28;20377;-81
2022/05/13 04:16:23;;;;;;;15.35;10.13;;;384.40;2329.60;;;;;;5074427;28;20425;-83
2022/05/13 04:18:51;;;;;;;14.20;10.35;;;384.60;2329.60;;;;;;5072798;28;20024;-80
2022/05/13 04:21:32;;;;;;;13.95;11.57;;;384.70;2329.60;;;;;;5072915;28;20020;-82
2022/05/13 04:24:01;;;;;;;14.38;11.48;;;384.70;2329.60;;;;;;5072701;28;20056;-82
2022/05/13 04:26:27;;;;;;;15.05;12.15;;;384.80;2329.60;;;;;;5072787;28;20035;-82
2022/05/13 04:28:55;;;;;;;21.15;12.10;;;409.70;2355.20;;;;;;5073054;28;20060;-83
2022/05/13 04:31:27;;;;;;;18.38;12.73;;;384.90;2329.60;;;;;;5073078;28;20477;-82
2022/05/13 04:33:54;;;;;;;;;;;409.60;2355.20;;;;;;5072961;28;20064;-81
2022/05/13 04:36:21;;;;;;;17.42;11.98;;;409.70;2355.20;;;;;;5072973;28;19908;-81
2022/05/13 04:38:47;;;;;;;14.82;11.65;;;409.80;2355.20;;;;;;5072714;28;20124;-81
2022/05/13 04:43:59;;;;;;;19.35;10.57;;;409.80;2355.20;;;;;;5074095;28;20385;-81
2022/05/13 04:46:25;;;;;;;17.08;10.73;;;410.00;2355.20;;;;;;5072716;28;20074;-82
2022/05/13 04:48:52;;;;;;;25.98;12.05;;;410.20;2355.20;;;;;;5072406;28;20438;-83
2022/05/13 04:51:18;;;;;;;17.95;11.77;;;410.30;2355.20;;;;;;5074477;28;20055;-80
2022/05/13 04:53:46;;;;;;;21.52;13.85;;;410.30;2355.20;;;;;;5072564;28;20064;-82
2022/05/13 04:56:12;;;;;;;19.45;14.25;;;410.00;2355.20;;;;;;5072538;28;20060;-82
2022/05/13 04:58:39;;;;;;;18.02;13.00;;;410.00;2355.20;;;;;;5072613;28;20056;-81
2022/05/13 05:01:07;;;;;;;19.23;11.85;;;409.70;2355.20;;;;;;5072484;28;20042;-83
2022/05/13 05:03:35;;;;;;;14.48;11.95;;;409.70;2355.20;;;;;;5072558;28;20123;-82
2022/05/13 05:06:02;;;;;;;20.38;12.32;;;409.70;2355.20;;;;;;5072429;28;20131;-82
2022/05/13 05:08:29;;;;;;;17.95;11.77;;;409.70;2355.20;;;;;;5072126;28;20115;-81
2022/05/13 05:10:57;;;;;;;14.00;11.27;;;409.90;2355.20;;;;;;5072478;28;20063;-82
2022/05/13 05:13:28;;;;;;;16.23;11.23;;;410.00;2355.20;;;;;;5072253;28;20037;-81
2022/05/13 05:15:55;;;;;;;14.60;11.18;;;410.20;2355.20;;;;;;5071923;28;20396;-82
2022/05/13 05:18:21;;;;;;;14.38;11.43;;;410.40;2355.20;;;;;;5072357;28;20494;-81
2022/05/13 05:20:47;;;;;;;15.75;11.82;;;435.20;2355.20;;;;;;5071948;28;20035;-81
2022/05/13 05:23:27;;;;;;;19.83;13.38;;;435.30;2355.20;;;;;;5071879;28;20048;-81
2022/05/13 05:25:54;;;;;;;19.27;12.55;;;435.20;2355.20;;;;;;5073310;28;20052;-80
2022/05/13 05:28:21;;;;;;;19.70;13.50;;;435.20;2355.20;;;;;;5072361;28;20021;-81
2022/05/13 05:30:47;;;;;;;17.77;13.13;;;435.20;2355.20;;;;;;5071938;28;20029;-82
2022/05/13 05:33:14;;;;;;;21.42;15.25;;;435.30;2355.20;;;;;;5073153;28;20020;-82
2022/05/13 05:35:41;;;;;;;27.63;17.73;;;435.40;2355.20;;;;;;5071547;28;20025;-81
2022/05/13 05:38:07;;;;;;;25.13;14.65;;;435.70;2355.20;;;;;;5072251;28;20020;-82
2022/05/13 05:40:37;;;;;;;25.80;15.20;;;435.50;2355.20;;;;;;5072192;28;20028;-82
2022/05/13 05:43:13;;;;;;;15.38;12.80;;;435.60;2355.20;;;;;;5071901;28;20440;-82
2022/05/13 05:45:40;;;;;;;19.92;13.07;;;435.60;2355.20;;;;;;5072065;28;20466;-82
2022/05/13 05:48:09;;;;;;;14.70;12.13;;;435.80;2355.20;;;;;;5072106;28;20024;-81
2022/05/13 05:50:35;;;;;;;17.30;12.10;;;436.00;2355.20;;;;;;5071856;28;20024;-82
2022/05/13 05:53:01;;;;;;;14.93;11.75;;;436.10;2355.20;;;;;;5072041;28;20025;-81
2022/05/13 05:58:16;;;;;;;13.85;11.57;;;460.90;2380.80;;;;;;5073124;28;20071;-81
2022/05/13 06:00:45;;;;;;;19.52;12.48;;;461.00;2380.80;;;;;;5072122;28;20029;-80
2022/05/13 06:03:11;;;;;;;21.35;12.45;;;461.10;2380.80;;;;;;5072012;28;20067;-81
2022/05/13 06:05:37;;;;;;;17.30;11.90;;;461.20;2380.80;;;;;;5071898;28;20040;-80
2022/05/13 06:08:05;;;;;;;15.45;12.00;;;461.20;2380.80;;;;;;5072159;28;20571;-80
2022/05/13 06:10:32;;;;;;;16.25;11.45;;;461.20;2380.80;;;;;;5073075;28;20040;-81
2022/05/13 06:12:58;;;;;;;16.38;11.55;;;461.30;2380.80;;;;;;5073279;28;20099;-80
2022/05/13 06:15:25;;;;;;;15.80;11.25;;;461.50;2380.80;;;;;;5073054;28;20121;-81
2022/05/13 06:17:53;;;;;;;12.95;11.35;;;461.50;2380.80;;;;;;5071658;28;20416;-79
2022/05/13 06:20:24;;;;;;;20.33;11.25;;;461.70;2380.80;;;;;;5071988;28;20024;-81
2022/05/13 06:22:51;;;;;;;18.42;12.13;;;486.40;2380.80;;;;;;5071765;28;20135;-78
2022/05/13 06:25:19;;;;;;;13.02;10.45;;;486.40;2380.80;;;;;;5071584;28;20359;-77
2022/05/13 06:27:46;;;;;;;20.27;11.77;;;486.50;2380.80;;;;;;5073304;28;20032;-77
2022/05/13 06:30:16;;;;;;;15.02;10.60;;;486.70;2380.80;;;;;;5071727;28;20024;-77
2022/05/13 06:32:42;;;;;;;14.07;10.27;;;486.80;2380.80;;;;;;5072178;28;20082;-80
2022/05/13 06:35:09;;;;;;;13.23;10.40;;;487.00;2380.80;;;;;;5075412;28;20037;-77
2022/05/13 06:37:36;;;;;;;17.38;9.60;;;487.20;2380.80;;;;;;5075565;28;20025;-78
2022/05/13 06:40:03;;;;;;;12.43;9.38;;;487.30;2380.80;;;;;;5074800;28;20032;-77
2022/05/13 06:42:29;;;;;;;12.23;9.35;;;487.30;2380.80;;;;;;5075140;28;20109;-77
2022/05/13 06:44:54;;;;;;;13.98;9.80;;;512.20;2380.80;;;;;;5075527;28;20097;-79
2022/05/13 06:47:20;;;;;;;14.30;10.02;;;512.30;2380.80;;;;;;5076080;28;20029;-78
2022/05/13 06:49:46;;;;;;;17.17;9.48;;;512.50;2380.80;;;;;;5075079;28;20029;-78
2022/05/13 06:52:13;;;;;;;11.02;8.63;;;512.60;2380.80;;;;;;5076057;28;20033;-77
2022/05/13 06:54:42;;;;;;;14.55;9.48;;;512.80;2380.80;;;;;;5074768;28;20113;-77
2022/05/13 06:57:10;;;;;;;9.98;8.65;;;512.90;2380.80;;;;;;5076188;28;20028;-77
2022/05/13 06:59:36;;;;;;;12.90;10.18;;;512.80;2380.80;;;;;;5074350;28;20028;-76
2022/05/13 07:02:03;;;;;;;14.23;9.88;;;512.80;2380.80;;;;;;5074779;28;20029;-77
2022/05/13 07:04:29;;;;;;;13.50;8.95;;;512.90;2380.80;;;;;;5074917;28;20123;-77
2022/05/13 07:06:54;;;;;;;10.73;7.82;;;537.70;2406.40;;;;;;5075456;28;20056;-76
2022/05/13 07:09:20;;;;;;;10.13;8.05;;;538.00;2406.40;;;;;;5074901;28;20059;-79
2022/05/13 07:11:46;;;;;;;11.57;7.82;;;538.00;2406.40;;;;;;5074896;28;20030;-78
2022/05/13 07:14:12;;;;;;;10.05;8.55;;;538.20;2406.40;;;;;;5074198;28;20032;-78
2022/05/13 07:16:38;;;;;;;12.85;8.88;;;538.30;2406.40;;;;;;5074767;28;20089;-81
2022/05/13 07:19:04;;;;;;;12.18;9.85;;;563.20;2380.80;;;;;;5074653;28;20466;-78
2022/05/13 07:21:30;;;;;;;14.68;8.30;;;563.50;2380.80;;;;;;5075562;28;20070;-78
2022/05/13 07:23:56;;;;;;;10.20;8.18;;;563.50;2355.20;;;;;;5074336;28;20048;-78
2022/05/13 07:26:22;;;;;;;12.63;7.93;;;563.30;2380.80;;;;;;5074783;28;20073;-78
2022/05/13 07:28:48;;;;;;;11.90;8.10;;;563.50;2355.20;;;;;;5074321;28;20459;-79
2022/05/13 07:31:14;;;;;;;11.80;7.65;;;563.60;2329.60;;;;;;5075572;28;20095;-80
2022/05/13 07:33:39;;;;;;;12.07;8.25;;;563.90;2304.00;;;;;;5075508;28;20412;-77
2022/05/13 07:36:05;;;;;;;11.27;7.90;;;564.10;2278.40;;;;;;5075559;28;20104;-76
2022/05/13 07:38:34;;;;;;;14.43;8.35;;;564.10;2252.80;;;;;;5074101;28;20028;-76
2022/05/13 07:41:19;;;;;;;11.27;7.88;;;563.80;2252.80;;;;;;5074292;28;20035;-76
2022/05/13 07:43:45;;;;;;;11.38;8.02;;;563.80;2252.80;;;;;;5072279;28;20029;-77
2022/05/13 07:46:12;;;;;;;11.93;7.75;;;564.10;2227.20;;;;;;5074357;28;20024;-76
2022/05/13 07:48:40;;;;;;;17.65;9.48;;;588.90;2227.20;;;;;;5073967;28;20032;-77
2022/05/13 07:51:06;;;;;;;16.52;8.73;;;589.20;2227.20;;;;;;5074309;28;20385;-76
2022/05/13 07:53:32;;;;;;;10.45;8.05;;;589.50;2176.00;;;;;;5075239;28;20106;-76
2022/05/13 07:55:58;;;;;;;11.48;7.88;;;589.40;2150.40;;;;;;5074872;28;20454;-77
2022/05/13 07:58:24;;;;;;;12.90;8.55;;;589.70;2150.40;;;;;;5073695;28;20024;-76
2022/05/13 08:00:50;;;;;;;18.65;14.32;;;614.50;2150.40;;;;;;5075067;28;20024;-77
2022/05/13 08:03:17;;;;;;;10.60;8.90;;;614.50;2124.80;;;;;;5073310;28;20021;-76
2022/05/13 08:05:50;;;;;;;16.45;9.00;;;614.70;2099.20;;;;;;5073747;28;20025;-77
2022/05/13 08:08:20;;;;;;;19.13;9.57;;;614.80;2099.20;;;;;;5074515;28;20029;-80
2022/05/13 08:10:50;;;;;;;12.75;9.10;;;615.00;2099.20;;;;;;5073031;28;20024;-76
2022/05/13 08:13:16;;;;;;;16.55;13.23;;;615.10;2073.60;;;;;;5073170;28;20024;-75
2022/05/13 08:15:43;;;;;;;13.95;10.02;;;640.00;2073.60;;;;;;5074580;28;20533;-77
2022/05/13 08:18:09;;;;;;;10.93;8.35;;;615.30;2022.40;;;;;;5076358;28;20079;-76
2022/05/13 08:20:35;;;;;;;9.10;7.63;;;640.20;1996.80;;;;;;5085423;28;20024;-76
2022/05/13 08:23:01;;;;;;;12.07;8.85;;;640.20;1996.80;;;;;;5076241;28;20056;-76
2022/05/13 08:25:27;;;;;;;12.82;7.55;;;640.40;1996.80;;;;;;5063957;28;20028;-75
2022/05/13 08:27:53;;;;;;;10.95;7.80;;;640.70;1945.60;;;;;;5064359;28;20029;-76
2022/05/13 08:30:20;;;;;;;10.05;7.55;;;640.90;1920.00;;;;;;5064907;28;20451;-75
2022/05/13 08:32:46;;;;;;;10.18;7.43;;;640.90;1920.00;;;;;;5060987;28;20036;-77
2022/05/13 08:35:13;;;;;;;10.55;7.57;;;665.70;1945.60;;;;;;5060221;28;20044;-77
2022/05/13 08:37:57;;;;;;;10.88;7.47;;;665.90;1945.60;;;;;;5055682;28;20454;-76
2022/05/13 08:40:31;;;;;;;11.80;8.20;;;665.80;1945.60;;;;;;5052852;28;20029;-78
2022/05/13 08:42:59;;;;;;;11.90;7.97;;;666.20;1920.00;;;;;;5052999;28;20017;-77
2022/05/13 08:45:25;;;;;;;10.20;7.25;;;666.30;1920.00;;;;;;5052636;28;20090;-78
2022/05/13 08:47:55;;;;;;;10.23;7.38;;;666.10;1894.40;;;;;;5054461;28;20111;-77
2022/05/13 08:50:42;;;;;;;13.80;8.38;;;666.20;1920.00;;;;;;5052902;28;20025;-76
2022/05/13 08:53:29;;;;;;;10.98;7.35;;;666.30;1920.00;;;;;;5044835;28;20108;-81
2022/05/13 08:56:05;;;;;;;12.55;7.82;;;666.40;1894.40;;;;;;5032506;28;20103;-76
2022/05/13 08:58:36;;;;;;;9.38;6.80;;;666.10;1868.80;;;;;;5032634;28;20029;-78
2022/05/13 09:01:08;;;;;;;9.57;6.55;;;666.00;1894.40;;;;;;5032900;28;20100;-78
2022/05/13 09:03:45;;;;;;;;;;;666.30;1894.40;;;;;;5033195;28;20048;-78
2022/05/13 09:06:41;;;;;;;9.88;6.35;;;691.40;1894.40;;;;;;5032290;28;19915;-76
2022/05/13 09:09:10;;;;;;;9.73;6.80;;;691.20;1868.80;;;;;;5032693;28;20030;-77
2022/05/13 09:11:48;;;;;;;8.70;6.78;;;691.20;1868.80;;;;;;5036098;28;20489;-76
2022/05/13 09:14:14;;;;;;;13.23;7.45;;;691.30;1868.80;;;;;;5036420;28;20391;-77
2022/05/13 09:16:50;;;;;;;9.77;6.57;;;691.90;1868.80;;;;;;5036657;28;20026;-77
2022/05/13 09:19:35;;;;;;;10.70;7.20;;;692.10;1817.60;;;;;;5035549;28;20506;-76
2022/05/13 09:22:11;;;;;;;14.48;11.25;;;717.00;1792.00;;;;;;5037561;28;20029;-78
2022/05/13 09:24:37;;;;;;;12.15;6.90;;;717.10;1817.60;;;;;;5055354;28;20035;-75
2022/05/13 09:27:04;;;;;;;15.07;8.30;;;717.40;1817.60;;;;;;5055268;28;20048;-78
2022/05/13 09:29:42;;;;;;;11.68;8.23;;;717.60;1792.00;;;;;;5055502;28;20036;-77
2022/05/13 09:32:15;;;;;;;11.23;7.13;;;742.40;1792.00;;;;;;5073293;28;20066;-77
2022/05/13 09:34:50;;;;;;;9.27;6.90;;;717.60;1740.80;;;;;;5073598;28;20032;-77
2022/05/13 09:37:23;;;;;;;9.13;6.80;;;717.50;1740.80;;;;;;5054342;28;20032;-78
2022/05/13 09:40:34;;;;;;;9.07;6.45;;;717.30;1740.80;;;;;;5055526;28;20032;-80
2022/05/13 09:43:00;;;;;;;9.38;6.68;;;717.20;1740.80;;;;;;5052117;28;20396;-77
2022/05/13 09:45:31;;;;;;;13.30;7.10;;;717.70;1715.20;;;;;;5073047;28;20028;-78
2022/05/13 09:48:19;;;;;;;11.70;8.03;;;742.60;1715.20;;;;;;5073159;28;20021;-77
2022/05/13 09:50:54;;;;;;;11.07;6.88;;;743.00;1715.20;;;;;;5059804;28;20040;-78
2022/05/13 09:53:26;;;;;;;11.38;6.47;;;743.30;1715.20;;;;;;5055000;28;20028;-80
2022/05/13 09:55:54;;;;;;;11.85;6.43;;;743.30;1689.60;;;;;;5055231;28;20040;-78
2022/05/13 09:58:27;;;;;;;8.00;6.47;;;743.30;1664.00;;;;;;5054894;28;20047;-79
2022/05/13 10:01:09;;;;;;;10.85;6.63;;;743.30;1689.60;;;;;;5055147;28;20025;-78
2022/05/13 10:03:38;;;;;;;16.88;6.60;;;768.00;1664.00;;;;;;5055288;28;20040;-79
2022/05/13 10:06:10;;;;;;;11.02;6.20;;;768.30;1638.40;;;;;;5073130;28;20369;-77
2022/05/13 10:08:55;;;;;;;11.15;7.13;;;768.10;1638.40;;;;;;5077169;28;20145;-77
2022/05/13 10:14:32;;;;;;;10.60;7.10;;;768.80;1638.40;;;;;;5076578;28;20557;-78
2022/05/13 10:17:17;;;;;;;11.90;7.93;;;793.60;1689.60;;;;;;5058864;28;20028;-79
2022/05/13 10:19:51;;;;;;;10.82;6.60;;;793.70;1638.40;;;;;;5058524;28;20032;-78
2022/05/13 10:23:02;;;;;;;11.48;6.00;;;793.80;1612.80;;;;;;5058543;28;20050;-76
2022/05/13 10:25:34;;;;;;;8.52;6.00;;;793.80;1612.80;;;;;;4975688;28;20039;-76
2022/05/13 10:28:11;;;;;;;12.02;6.70;;;793.70;1612.80;;;;;;5059144;28;20045;-77
2022/05/13 10:31:02;;;;;;;11.80;5.80;;;793.70;1587.20;;;;;;5076651;28;20025;-75
2022/05/13 10:33:42;;;;;;;8.80;5.97;;;793.90;1612.80;;;;;;5058246;28;20024;-77
2022/05/13 10:36:37;;;;;;;12.35;6.97;;;793.90;1587.20;;;;;;5058644;28;20370;-76
2022/05/13 10:39:15;;;;;;;9.80;6.40;;;793.70;1587.20;;;;;;4987280;28;20129;-75
2022/05/13 10:41:56;;;;;;;14.05;7.28;;;768.70;1587.20;;;;;;5075732;28;20485;-76
2022/05/13 10:44:58;;;;;;;9.88;7.20;;;793.80;1587.20;;;;;;5058302;28;20119;-75
2022/05/13 10:47:41;;;;;;;;;;;793.80;1561.60;;;;;;5076184;28;20031;-75
2022/05/13 10:50:16;;;;;;;9.15;6.65;;;794.20;1561.60;;;;;;5075834;28;19999;-77
2022/05/13 10:52:45;;;;;;;10.75;7.03;;;794.20;1561.60;;;;;;5058141;28;20384;-76
2022/05/13 10:55:32;;;;;;;9.65;5.65;;;819.30;1536.00;;;;;;5075599;28;20028;-75
2022/05/13 10:57:58;;;;;;;8.18;5.53;;;794.40;1536.00;;;;;;5075741;28;20032;-74
2022/05/13 11:00:48;;;;;;;7.95;6.20;;;793.70;1561.60;;;;;;5058021;28;20024;-76
2022/05/13 11:03:32;;;;;;;11.65;7.43;;;794.10;1561.60;;;;;;5075515;28;20021;-75
2022/05/13 11:06:31;;;;;;;10.90;7.18;;;794.50;1536.00;;;;;;5057865;28;20024;-75
2022/05/13 11:09:21;;;;;;;9.00;6.82;;;819.60;1536.00;;;;;;5020098;28;20032;-76
2022/05/13 11:11:48;;;;;;;15.88;7.72;;;819.70;1536.00;;;;;;5057772;28;20477;-75
2022/05/13 11:14:33;;;;;;;8.70;6.43;;;820.00;1510.40;;;;;;5076174;28;20055;-75
2022/05/13 11:17:18;;;;;;;9.07;6.72;;;819.50;1536.00;;;;;;5057463;28;20028;-76
2022/05/13 11:20:11;;;;;;;8.32;5.60;;;819.70;1510.40;;;;;;5057009;28;20024;-75
2022/05/13 11:23:00;;;;;;;12.57;8.98;;;820.00;1484.80;;;;;;5061639;28;20054;-75
2022/05/13 11:25:56;;;;;;;10.00;7.43;;;844.80;1536.00;;;;;;5077788;28;20032;-76
2022/05/13 11:28:49;;;;;;;8.63;6.20;;;845.20;1510.40;;;;;;5096058;28;20051;-76
2022/05/13 11:31:33;;;;;;;10.50;6.38;;;845.20;1484.80;;;;;;5077236;28;20457;-76
2022/05/13 11:34:08;;;;;;;10.35;5.68;;;845.20;1484.80;;;;;;5077571;28;20039;-75
2022/05/13 11:36:58;;;;;;;10.70;7.68;;;845.10;1510.40;;;;;;5077325;28;20432;-75
2022/05/13 11:39:47;;;;;;;8.43;5.82;;;845.40;1510.40;;;;;;5076487;28;20115;-75
2022/05/13 11:42:32;;;;;;;9.57;5.63;;;845.60;1510.40;;;;;;5077369;28;20465;-74
2022/05/13 11:45:17;;;;;;;11.30;6.70;;;845.70;1459.20;;;;;;5095320;28;20032;-75
2022/05/13 11:47:58;;;;;;;10.98;6.40;;;845.60;1484.80;;;;;;5095204;28;20102;-75
2022/05/13 11:50:30;;;;;;;10.48;6.47;;;845.50;1459.20;;;;;;5077072;28;20385;-77
2022/05/13 11:52:59;;;;;;;7.53;5.22;;;845.50;1459.20;;;;;;5077299;28;20393;-76
2022/05/13 11:55:47;;;;;;;12.43;5.80;;;845.70;1484.80;;;;;;5077083;28;20031;-76
2022/05/13 11:58:47;;;;;;;9.63;7.15;;;845.10;1484.80;;;;;;5077081;28;20028;-76
2022/05/13 12:01:14;;;;;;;9.48;5.68;;;845.10;1484.80;;;;;;5094842;28;20035;-75
2022/05/13 12:03:40;;;;;;;7.47;5.97;;;844.80;1484.80;;;;;;5077094;28;20050;-76
2022/05/13 12:06:11;;;;;;;9.50;6.15;;;844.90;1484.80;;;;;;5076218;28;20540;-76
2022/05/13 12:08:42;;;;;;;7.75;5.72;;;845.00;1484.80;;;;;;5094693;28;20024;-75
2022/05/13 12:11:29;;;;;;;9.68;5.85;;;845.00;1459.20;;;;;;5076610;28;20028;-76
2022/05/13 12:14:10;;;;;;;12.02;6.30;;;845.20;1459.20;;;;;;5076651;28;20393;-74
2022/05/13 12:17:05;;;;;;;8.98;6.50;;;845.30;1459.20;;;;;;5076472;28;20031;-74
2022/05/13 12:19:34;;;;;;;14.25;6.13;;;870.40;1433.60;;;;;;5076518;28;20028;-77
2022/05/13 12:22:23;;;;;;;10.43;6.70;;;845.40;1433.60;;;;;;5076326;28;20020;-76
2022/05/13 12:25:02;;;;;;;9.80;6.47;;;845.20;1459.20;;;;;;5094499;28;20028;-74
2022/05/13 12:27:35;;;;;;;10.73;6.65;;;845.20;1459.20;;;;;;5094746;28;20020;-74
2022/05/13 12:30:12;;;;;;;12.10;5.90;;;845.70;1433.60;;;;;;5075812;28;20028;-74
2022/05/13 12:32:45;;;;;;;7.15;5.60;;;845.60;1459.20;;;;;;5076218;28;20047;-75
2022/05/13 12:38:09;;;;;;;8.88;6.95;;;845.40;1459.20;;;;;;5094499;28;20035;-76
2022/05/13 12:40:45;;;;;;;13.23;6.90;;;845.50;1433.60;;;;;;5094468;28;20020;-74
2022/05/13 12:43:25;;;;;;;11.65;7.47;;;845.60;1433.60;;;;;;5094552;28;20027;-75
2022/05/13 12:46:16;;;;;;;7.35;6.50;;;870.40;1433.60;;;;;;5076120;28;20028;-74
2022/05/13 12:49:11;;;;;;;11.00;8.43;;;845.20;1433.60;;;;;;5076318;28;20073;-76
2022/05/13 12:51:46;;;;;;;8.25;5.28;;;870.50;1433.60;;;;;;5047042;28;20100;-75